createdAt,value
2022-09-10T00:00:56.326Z,17.52
2022-09-10T00:05:57.884Z,17.44
2022-09-10T00:11:05.215Z,17.44
2022-09-10T00:16:10.131Z,17.43
2022-09-10T00:21:15.047Z,17.37
2022-09-10T00:26:28.681Z,17.30
2022-09-10T00:31:32.271Z,17.37
2022-09-10T00:36:39.705Z,17.39
2022-09-10T00:41:43.969Z,17.46
2022-09-10T00:46:51.662Z,17.46
2022-09-10T00:51:53.916Z,17.46
2022-09-10T00:57:01.380Z,17.41
2022-09-10T01:02:03.981Z,17.53
2022-09-10T01:07:09.845Z,17.55
2022-09-10T01:12:53.601Z,17.56
2022-09-10T01:18:22.768Z,17.54
2022-09-10T01:23:54.529Z,17.50
2022-09-10T01:29:02.135Z,17.51
2022-09-10T01:34:16.868Z,17.47
2022-09-10T01:39:22.125Z,17.44
2022-09-10T01:44:44.513Z,17.44
2022-09-10T01:50:04.006Z,17.43
2022-09-10T01:55:08.907Z,17.43
2022-09-10T02:00:19.000Z,17.39
2022-09-10T02:05:23.670Z,17.37
2022-09-10T02:10:30.141Z,17.38
2022-09-10T02:15:33.218Z,17.32
2022-09-10T02:20:48.865Z,17.32
2022-09-10T02:25:50.616Z,17.29
2022-09-10T02:30:52.885Z,17.28
2022-09-10T02:35:55.148Z,17.24
2022-09-10T02:40:59.616Z,17.25
2022-09-10T02:46:02.420Z,17.19
2022-09-10T02:51:04.732Z,17.15
2022-09-10T02:56:08.806Z,17.13
2022-09-10T03:01:14.928Z,17.14
2022-09-10T03:06:18.733Z,17.14
2022-09-10T03:11:24.086Z,17.14
2022-09-10T03:16:26.988Z,17.08
2022-09-10T03:21:30.139Z,17.11
2022-09-10T03:26:33.261Z,17.10
2022-09-10T03:31:36.079Z,17.04
2022-09-10T03:36:38.082Z,16.92
2022-09-10T03:41:42.705Z,16.89
2022-09-10T03:46:45.573Z,16.85
2022-09-10T03:51:49.333Z,16.82
2022-09-10T03:56:51.772Z,16.80
2022-09-10T04:01:53.351Z,16.78
2022-09-10T04:06:55.445Z,16.74
2022-09-10T04:11:57.266Z,16.65
2022-09-10T04:17:02.265Z,16.64
2022-09-10T04:22:05.743Z,16.63
2022-09-10T04:27:07.785Z,16.61
2022-09-10T04:32:09.690Z,16.60
2022-09-10T04:37:12.721Z,16.61
2022-09-10T04:42:20.263Z,16.62
2022-09-10T04:47:23.344Z,16.65
2022-09-10T04:52:25.156Z,16.61
2022-09-10T04:57:27.980Z,16.66
2022-09-10T05:02:29.786Z,16.68
2022-09-10T05:07:31.574Z,16.74
2022-09-10T05:12:33.234Z,16.79
2022-09-10T05:17:35.033Z,16.91
2022-09-10T05:22:40.454Z,17.00
2022-09-10T05:27:43.021Z,17.01
2022-09-10T05:32:53.488Z,17.11
2022-09-10T05:38:00.969Z,17.11
2022-09-10T05:43:05.922Z,17.09
2022-09-10T05:48:07.809Z,17.04
2022-09-10T05:53:10.021Z,17.06
2022-09-10T05:58:13.627Z,17.09
2022-09-10T06:03:16.991Z,17.25
2022-09-10T06:08:22.733Z,17.44
2022-09-10T06:13:26.476Z,17.61
2022-09-10T06:18:29.942Z,17.75
2022-09-10T06:23:33.022Z,17.85
2022-09-10T06:28:35.274Z,17.81
2022-09-10T06:33:37.508Z,17.71
2022-09-10T06:38:41.086Z,17.85
2022-09-10T06:43:46.775Z,18.04
2022-09-10T06:49:18.793Z,18.17
2022-09-10T06:54:22.816Z,18.28
2022-09-10T06:59:24.857Z,18.46
2022-09-10T07:04:26.707Z,18.62
2022-09-10T07:09:32.167Z,18.81
2022-09-10T07:14:35.750Z,18.99
2022-09-10T07:19:41.261Z,19.08
2022-09-10T07:24:55.258Z,19.10
2022-09-10T07:30:06.266Z,19.24
2022-09-10T07:35:07.993Z,19.55
2022-09-10T07:40:10.248Z,19.75
2022-09-10T07:45:16.244Z,19.79
2022-09-10T07:50:19.313Z,19.82
2022-09-10T07:55:25.953Z,19.84
2022-09-10T08:00:28.218Z,19.96
2022-09-10T08:05:37.256Z,20.00
2022-09-10T08:10:39.180Z,20.17
2022-09-10T08:15:44.008Z,20.29
2022-09-10T08:20:53.274Z,20.28
2022-09-10T08:25:55.188Z,20.32
2022-09-10T08:31:02.027Z,20.45
2022-09-10T08:36:11.982Z,20.51
2022-09-10T08:41:38.405Z,20.56
2022-09-10T08:46:57.815Z,20.61
2022-09-10T08:52:11.324Z,20.67
2022-09-10T08:57:26.310Z,20.81
2022-09-10T09:02:48.464Z,20.86
2022-09-10T09:07:53.271Z,20.82
2022-09-10T09:12:58.121Z,20.94
2022-09-10T09:18:21.108Z,21.06
2022-09-10T09:24:13.132Z,21.04
2022-09-10T09:29:36.118Z,20.95
2022-09-10T09:34:43.941Z,20.98
2022-09-10T09:40:06.207Z,21.02
2022-09-10T09:45:34.987Z,20.95
2022-09-10T09:50:41.769Z,20.98
2022-09-10T09:55:47.232Z,21.06
2022-09-10T10:00:50.001Z,21.37
2022-09-10T10:06:01.675Z,21.72
2022-09-10T10:11:04.858Z,22.00
2022-09-10T10:16:23.188Z,22.22
2022-09-10T10:21:31.956Z,22.25
2022-09-10T10:26:35.638Z,22.38
2022-09-10T10:31:40.596Z,22.51
2022-09-10T10:36:53.492Z,22.53
2022-09-10T10:42:04.399Z,22.26
2022-09-10T10:47:43.228Z,22.13
2022-09-10T10:53:02.274Z,22.07
2022-09-10T10:58:37.576Z,22.24
2022-09-10T11:03:44.921Z,22.61
2022-09-10T11:09:24.524Z,22.88
2022-09-10T11:14:48.800Z,22.84
2022-09-10T11:20:27.937Z,22.85
2022-09-10T11:26:15.682Z,22.90
2022-09-10T11:31:40.559Z,22.98
2022-09-10T11:36:55.926Z,23.21
2022-09-10T11:41:59.009Z,23.33
2022-09-10T11:47:09.091Z,23.41
2022-09-10T11:52:12.197Z,23.37
2022-09-10T11:57:48.293Z,23.03
2022-09-10T12:03:27.144Z,22.77
2022-09-10T12:08:48.450Z,22.77
2022-09-10T12:13:50.803Z,22.74
2022-09-10T12:18:56.096Z,22.47
2022-09-10T12:23:59.912Z,22.21
2022-09-10T12:29:03.287Z,21.82
2022-09-10T12:34:15.032Z,21.99
2022-09-10T12:39:25.344Z,21.90
2022-09-10T12:44:36.487Z,22.00
2022-09-10T12:49:53.056Z,22.19
2022-09-10T12:55:15.117Z,22.34
2022-09-10T13:00:22.213Z,22.41
2022-09-10T13:05:45.096Z,22.51
2022-09-10T13:11:06.475Z,22.55
2022-09-10T13:16:15.741Z,22.45
2022-09-10T13:21:23.854Z,22.29
2022-09-10T13:26:28.605Z,22.53
2022-09-10T13:31:38.433Z,22.74
2022-09-10T13:37:11.277Z,22.94
2022-09-10T13:42:35.434Z,23.04
2022-09-10T13:47:47.516Z,23.18
2022-09-10T13:52:53.263Z,23.23
2022-09-10T13:58:00.584Z,23.16
2022-09-10T14:03:02.381Z,23.26
2022-09-10T14:08:27.280Z,23.35
2022-09-10T14:13:56.074Z,23.36
2022-09-10T14:19:02.024Z,23.44
2022-09-10T14:24:04.070Z,23.53
2022-09-10T14:29:24.852Z,23.42
2022-09-10T14:34:34.906Z,22.73
2022-09-10T14:39:44.434Z,22.27
2022-09-10T14:44:47.265Z,22.12
2022-09-10T14:49:48.965Z,21.82
2022-09-10T14:54:51.184Z,21.59
2022-09-10T14:59:57.231Z,21.48
2022-09-10T15:04:59.250Z,21.32
2022-09-10T15:10:01.706Z,21.10
2022-09-10T15:15:04.204Z,20.98
2022-09-10T15:20:06.774Z,20.91
2022-09-10T15:25:28.237Z,20.82
2022-09-10T15:30:29.996Z,20.87
2022-09-10T15:35:31.756Z,20.89
2022-09-10T15:55:25.034Z,20.50
2022-09-10T16:00:26.846Z,20.55
2022-09-10T16:05:30.782Z,20.50
2022-09-10T16:10:33.340Z,20.41
2022-09-10T16:15:36.010Z,20.33
2022-09-10T16:20:37.852Z,20.20
2022-09-10T16:25:39.444Z,20.12
2022-09-10T16:30:41.592Z,20.02
2022-09-10T16:35:43.427Z,19.84
2022-09-10T16:40:45.780Z,19.76
2022-09-10T16:45:50.897Z,19.67
2022-09-10T16:50:52.481Z,19.51
2022-09-10T16:56:00.860Z,19.41
2022-09-10T17:01:04.811Z,19.35
2022-09-10T17:06:06.599Z,19.26
2022-09-10T17:11:08.854Z,19.12
2022-09-10T17:16:30.538Z,18.94
2022-09-10T17:21:34.533Z,18.88
2022-09-10T17:26:38.055Z,18.85
2022-09-10T17:31:41.087Z,18.80
2022-09-10T17:36:45.651Z,18.74
2022-09-10T17:41:48.397Z,18.66
2022-09-10T17:46:50.343Z,18.57
2022-09-10T17:51:52.407Z,18.54
2022-09-10T17:56:54.529Z,18.44
2022-09-10T18:01:58.002Z,18.40
2022-09-10T18:07:01.132Z,18.28
2022-09-10T18:12:04.464Z,18.24
2022-09-10T18:17:06.056Z,18.15
2022-09-10T18:22:07.868Z,18.09
2022-09-10T18:27:09.894Z,18.01
2022-09-10T18:32:15.077Z,17.99
2022-09-10T18:37:17.302Z,17.92
2022-09-10T18:42:19.329Z,17.89
2022-09-10T18:47:40.986Z,17.86
2022-09-10T18:52:43.300Z,17.80
2022-09-10T18:57:45.212Z,17.77
2022-09-10T19:02:47.405Z,17.69
2022-09-10T19:07:49.077Z,17.62
2022-09-10T19:12:51.812Z,17.60
2022-09-10T19:17:53.905Z,17.57
2022-09-10T19:22:55.677Z,17.53
2022-09-10T19:27:57.292Z,17.51
2022-09-10T19:32:59.048Z,17.50
2022-09-10T19:38:11.919Z,17.46
2022-09-10T19:43:22.711Z,17.41
2022-09-10T19:48:24.459Z,17.41
2022-09-10T19:53:26.270Z,17.38
2022-09-10T19:58:28.181Z,17.39
2022-09-10T20:03:29.814Z,17.38
2022-09-10T20:08:35.608Z,17.43
2022-09-10T20:13:37.825Z,17.40
2022-09-10T20:18:39.934Z,17.42
2022-09-10T20:23:43.443Z,17.45
2022-09-10T20:28:45.427Z,17.46
2022-09-10T20:33:47.112Z,17.48
2022-09-10T20:38:49.557Z,17.49
2022-09-10T20:43:52.906Z,17.53
2022-09-10T20:48:55.427Z,17.53
2022-09-10T20:53:57.773Z,17.53
2022-09-10T20:58:59.968Z,17.55
2022-09-10T21:04:04.096Z,17.54
2022-09-10T21:09:06.233Z,17.55
2022-09-10T21:14:08.797Z,17.54
2022-09-10T21:19:16.161Z,17.54
2022-09-10T21:24:22.396Z,17.54
2022-09-10T21:29:24.038Z,17.51
2022-09-10T21:34:25.640Z,17.51
2022-09-10T21:39:27.441Z,17.49
2022-09-10T21:44:29.341Z,17.46
2022-09-10T21:49:31.111Z,17.44
2022-09-10T21:54:32.954Z,17.42
2022-09-10T21:59:34.733Z,17.41
2022-09-10T22:04:36.597Z,17.38
2022-09-10T22:09:38.137Z,17.35
2022-09-10T22:14:39.890Z,17.33
2022-09-10T22:19:41.455Z,17.32
2022-09-10T22:24:43.048Z,17.28
2022-09-10T22:29:45.368Z,17.28
2022-09-10T22:34:48.988Z,17.25
2022-09-10T22:39:50.595Z,17.23
2022-09-10T22:44:52.560Z,17.23
2022-09-10T22:49:54.261Z,17.21
2022-09-10T22:54:56.121Z,17.20
2022-09-10T22:59:58.037Z,17.18
2022-09-10T23:05:00.018Z,17.16
2022-09-10T23:10:02.390Z,17.17
2022-09-10T23:15:04.750Z,17.14
2022-09-10T23:20:07.344Z,17.13
2022-09-10T23:25:09.673Z,17.12
2022-09-10T23:30:12.130Z,17.07
2022-09-10T23:35:14.092Z,17.05
2022-09-10T23:40:15.905Z,17.06
2022-09-10T23:45:17.807Z,17.05
2022-09-10T23:50:19.705Z,17.01
2022-09-10T23:55:21.312Z,16.96
